Time;durP1;ratioP1;P1;durP2;ratioP2;P2;SDS_P1;SDS_P2;PMS_P1;PMS_P2;Temp;Humidity;BMP_temperature;BMP_pressure;BME280_temperature;BME280_humidity;BME280_pressure;Samples;Min_cycle;Max_cycle;Signal;HPM_P1;HPM_P2
2024/03/21 00:00:31;;;;;;;;;;;22.10;42.10;;;;;;3027613;19;4676;-28
2024/03/21 00:01:33;;;;;;;;;;;22.00;42.10;;;;;;3050583;19;4864;-28
2024/03/21 00:02:34;;;;;;;;;;;22.00;42.10;;;;;;3027670;19;4701;-23
2024/03/21 00:03:34;;;;;;;;;;;22.10;42.20;;;;;;3051203;19;4710;-25
2024/03/21 00:04:35;;;;;;;;;;;22.10;42.10;;;;;;3047083;19;4772;-24
2024/03/21 00:05:36;;;;;;;;;;;22.00;42.10;;;;;;3027472;19;4721;-24
2024/03/21 00:06:36;;;;;;;;;;;22.00;42.10;;;;;;3049405;19;4720;-26
2024/03/21 00:07:37;;;;;;;;;;;22.00;42.00;;;;;;3051123;19;4707;-25
2024/03/21 00:08:37;;;;;;;;;;;22.00;42.10;;;;;;3028193;19;4670;-25
2024/03/21 00:09:38;;;;;;;;;;;22.00;42.10;;;;;;3050116;19;4715;-28
2024/03/21 00:10:39;;;;;;;;;;;22.00;42.10;;;;;;3028407;19;4745;-27
2024/03/21 00:11:39;;;;;;;;;;;22.00;42.10;;;;;;3049909;19;4765;-27
2024/03/21 00:12:40;;;;;;;;;;;22.00;42.10;;;;;;3051245;19;4799;-24
2024/03/21 00:13:41;;;;;;;;;;;22.00;42.10;;;;;;3027617;19;4863;-24
2024/03/21 00:14:41;;;;;;;;;;;22.00;42.10;;;;;;3049558;19;4656;-25
2024/03/21 00:15:43;;;;;;;;;;;22.00;42.10;;;;;;3049796;19;4750;-25
2024/03/21 00:16:43;;;;;;;;;;;22.00;42.20;;;;;;3029177;19;4593;-24
2024/03/21 00:17:45;;;;;;;;;;;21.90;42.10;;;;;;3048853;19;4737;-26
2024/03/21 00:18:45;;;;;;;;;;;21.80;42.00;;;;;;3026807;19;4684;-27
2024/03/21 00:19:46;;;;;;;;;;;22.00;42.10;;;;;;3050441;19;4781;-26
2024/03/21 00:20:46;;;;;;;;;;;22.00;42.10;;;;;;3048775;19;4734;-26
2024/03/21 00:21:48;;;;;;;;;;;22.00;42.10;;;;;;3029253;19;4589;-24
2024/03/21 00:22:48;;;;;;;;;;;22.00;42.10;;;;;;3048961;19;4751;-23
2024/03/21 00:23:50;;;;;;;;;;;22.00;42.00;;;;;;3048067;19;4750;-27
2024/03/21 00:24:50;;;;;;;;;;;22.00;42.00;;;;;;3042966;19;4730;-25
2024/03/21 00:25:51;;;;;;;;;;;22.00;42.00;;;;;;3048888;19;4727;-27
2024/03/21 00:26:52;;;;;;;;;;;22.00;41.90;;;;;;3028366;19;4936;-26
2024/03/21 00:27:52;;;;;;;;;;;22.00;41.90;;;;;;3050182;19;4681;-27
2024/03/21 00:28:53;;;;;;;;;;;22.00;42.00;;;;;;3052106;19;4745;-25
2024/03/21 00:29:53;;;;;;;;;;;22.00;41.90;;;;;;3026444;19;4712;-28
2024/03/21 00:30:56;;;;;;;;;;;22.00;41.90;;;;;;3050006;19;4779;-28
2024/03/21 00:31:57;;;;;;;;;;;22.00;42.00;;;;;;3028213;19;4780;-25
2024/03/21 00:32:57;;;;;;;;;;;21.90;41.90;;;;;;3050790;19;4764;-24
2024/03/21 00:33:58;;;;;;;;;;;21.90;41.90;;;;;;3050034;19;4838;-27
2024/03/21 00:34:58;;;;;;;;;;;21.90;42.00;;;;;;3027555;19;4749;-25
2024/03/21 00:35:59;;;;;;;;;;;21.90;42.00;;;;;;3050675;19;4643;-25
2024/03/21 00:37:00;;;;;;;;;;;21.90;42.00;;;;;;3049075;19;4704;-28
2024/03/21 00:38:01;;;;;;;;;;;21.80;41.90;;;;;;3028599;19;5180;-25
2024/03/21 00:39:02;;;;;;;;;;;21.90;42.00;;;;;;3049632;19;4713;-25
2024/03/21 00:40:04;;;;;;;;;;;21.90;42.00;;;;;;3029097;19;4731;-24
2024/03/21 00:41:05;;;;;;;;;;;21.90;42.00;;;;;;3049999;19;4760;-28
2024/03/21 00:42:06;;;;;;;;;;;21.90;42.00;;;;;;3050576;19;4698;-25
2024/03/21 00:43:06;;;;;;;;;;;21.80;42.00;;;;;;3028924;19;20721;-27
2024/03/21 00:44:07;;;;;;;;;;;21.90;42.00;;;;;;3051940;19;4708;-26
2024/03/21 00:45:08;;;;;;;;;;;21.80;41.90;;;;;;3052777;19;4831;-27
2024/03/21 00:46:09;;;;;;;;;;;21.80;41.90;;;;;;3032383;19;5060;-24
2024/03/21 00:47:10;;;;;;;;;;;21.80;42.00;;;;;;3052060;19;4727;-26
2024/03/21 00:48:10;;;;;;;;;;;21.80;41.90;;;;;;3030612;19;4608;-26
2024/03/21 00:49:11;;;;;;;;;;;21.80;41.90;;;;;;3050036;19;4904;-26
2024/03/21 00:50:11;;;;;;;;;;;21.80;41.90;;;;;;3051848;19;4918;-26
2024/03/21 00:51:12;;;;;;;;;;;21.80;42.00;;;;;;3032341;19;4619;-25
2024/03/21 00:52:13;;;;;;;;;;;21.80;42.00;;;;;;3052921;19;4732;-25
2024/03/21 00:53:13;;;;;;;;;;;21.80;41.90;;;;;;3033012;19;4182;-28
2024/03/21 00:54:14;;;;;;;;;;;21.80;41.90;;;;;;3051652;19;4886;-26
2024/03/21 00:55:15;;;;;;;;;;;21.80;41.90;;;;;;3053251;19;4674;-25
2024/03/21 00:56:16;;;;;;;;;;;21.80;41.90;;;;;;3031721;19;4678;-25
2024/03/21 00:57:18;;;;;;;;;;;21.80;41.90;;;;;;3053607;19;4717;-28
2024/03/21 00:58:19;;;;;;;;;;;21.80;41.90;;;;;;3050371;19;4776;-26
2024/03/21 00:59:21;;;;;;;;;;;21.10;41.60;;;;;;3031241;19;4650;-24
2024/03/21 01:00:22;;;;;;;;;;;21.80;41.90;;;;;;3052499;19;4894;-26
2024/03/21 01:01:22;;;;;;;;;;;21.80;41.90;;;;;;3032144;19;4627;-24
2024/03/21 01:02:23;;;;;;;;;;;21.80;41.90;;;;;;3052240;19;4771;-25
2024/03/21 01:03:23;;;;;;;;;;;21.80;41.80;;;;;;3053050;19;4701;-28
2024/03/21 01:04:25;;;;;;;;;;;21.80;41.80;;;;;;3030118;19;4591;-24
2024/03/21 01:05:25;;;;;;;;;;;21.80;41.80;;;;;;3052875;19;4887;-24
2024/03/21 01:06:26;;;;;;;;;;;21.80;41.70;;;;;;3051980;19;4796;-26
2024/03/21 01:07:27;;;;;;;;;;;21.80;41.90;;;;;;3031109;19;4652;-27
2024/03/21 01:08:28;;;;;;;;;;;21.80;41.80;;;;;;3051310;19;4707;-24
2024/03/21 01:09:29;;;;;;;;;;;21.80;41.70;;;;;;3031475;19;4645;-29
2024/03/21 01:10:29;;;;;;;;;;;21.80;41.70;;;;;;3050836;19;5108;-25
2024/03/21 01:11:30;;;;;;;;;;;21.80;41.70;;;;;;3052805;19;4709;-28
2024/03/21 01:12:31;;;;;;;;;;;21.80;41.70;;;;;;3029965;19;4678;-25
2024/03/21 01:13:31;;;;;;;;;;;21.80;41.70;;;;;;3052239;19;4708;-27
2024/03/21 01:14:32;;;;;;;;;;;21.80;41.70;;;;;;3030524;19;4732;-24
2024/03/21 01:15:32;;;;;;;;;;;21.80;41.70;;;;;;3052719;19;4687;-24
2024/03/21 01:16:33;;;;;;;;;;;21.80;41.70;;;;;;3053166;19;4696;-25
2024/03/21 01:17:34;;;;;;;;;;;21.80;41.70;;;;;;3030772;19;4637;-27
2024/03/21 01:18:35;;;;;;;;;;;21.70;41.70;;;;;;3053082;19;4720;-27
2024/03/21 01:19:37;;;;;;;;;;;21.70;41.80;;;;;;3053637;19;4722;-25
2024/03/21 01:20:40;;;;;;;;;;;21.70;41.80;;;;;;3030931;19;4746;-24
2024/03/21 01:21:41;;;;;;;;;;;21.70;41.70;;;;;;3052862;19;4711;-26
2024/03/21 01:22:41;;;;;;;;;;;21.70;41.80;;;;;;3029930;19;4729;-24
2024/03/21 01:23:42;;;;;;;;;;;21.70;41.90;;;;;;3051015;19;4684;-25
2024/03/21 01:24:46;;;;;;;;;;;21.70;41.90;;;;;;3050560;19;4668;-25
2024/03/21 01:25:46;;;;;;;;;;;21.70;41.90;;;;;;3029883;19;4798;-25
2024/03/21 01:26:47;;;;;;;;;;;21.70;41.80;;;;;;3052649;19;4718;-25
2024/03/21 01:27:48;;;;;;;;;;;21.70;41.80;;;;;;3053815;19;4726;-26
2024/03/21 01:28:48;;;;;;;;;;;21.60;41.80;;;;;;3031123;19;4598;-25
2024/03/21 01:29:49;;;;;;;;;;;21.60;41.90;;;;;;3049776;19;4619;-25
2024/03/21 01:30:49;;;;;;;;;;;21.60;41.90;;;;;;3031122;19;4847;-24
2024/03/21 01:31:50;;;;;;;;;;;21.60;41.80;;;;;;3051984;19;4760;-25
2024/03/21 01:32:51;;;;;;;;;;;21.60;41.90;;;;;;3052335;19;4676;-27
2024/03/21 01:33:51;;;;;;;;;;;21.60;41.90;;;;;;3030874;19;4731;-24
2024/03/21 01:34:52;;;;;;;;;;;21.60;41.90;;;;;;3051668;19;4680;-29
2024/03/21 01:35:53;;;;;;;;;;;21.60;41.90;;;;;;3030926;19;4681;-26
2024/03/21 01:36:53;;;;;;;;;;;21.60;42.00;;;;;;3051803;19;4732;-26
2024/03/21 01:37:55;;;;;;;;;;;21.60;41.90;;;;;;3052879;19;4730;-25
2024/03/21 01:38:55;;;;;;;;;;;21.60;41.90;;;;;;3029260;19;4673;-24
2024/03/21 01:39:56;;;;;;;;;;;21.60;41.90;;;;;;3050527;19;4701;-24
2024/03/21 01:40:57;;;;;;;;;;;21.60;41.90;;;;;;3051689;19;4769;-28
2024/03/21 01:41:57;;;;;;;;;;;21.60;42.00;;;;;;3030977;19;4776;-25
2024/03/21 01:42:58;;;;;;;;;;;21.60;41.90;;;;;;3050951;19;4771;-27
2024/03/21 01:43:59;;;;;;;;;;;21.60;42.10;;;;;;3029153;19;4668;-26
2024/03/21 01:45:01;;;;;;;;;;;21.50;41.90;;;;;;3051902;19;4655;-25
2024/03/21 01:46:16;;;;;;;;;;;21.60;42.00;;;;;;3052087;19;4685;-26
2024/03/21 01:47:18;;;;;;;;;;;21.60;41.90;;;;;;2929274;19;2004512;-29
2024/03/21 01:48:19;;;;;;;;;;;21.60;42.00;;;;;;3050088;19;4750;-25
2024/03/21 01:49:19;;;;;;;;;;;21.60;41.80;;;;;;3031024;19;4687;-24
2024/03/21 01:50:20;;;;;;;;;;;21.60;41.90;;;;;;3051871;19;5078;-24
2024/03/21 01:51:23;;;;;;;;;;;21.60;41.80;;;;;;3051569;19;4833;-25
2024/03/21 01:52:23;;;;;;;;;;;21.60;41.80;;;;;;3031091;19;4628;-26
2024/03/21 01:53:24;;;;;;;;;;;21.60;41.90;;;;;;3052015;19;4875;-24
2024/03/21 01:54:24;;;;;;;;;;;21.50;41.80;;;;;;3049390;19;4727;-26
2024/03/21 01:55:25;;;;;;;;;;;21.50;41.70;;;;;;3029060;19;4647;-29
2024/03/21 01:56:26;;;;;;;;;;;21.50;41.90;;;;;;3052397;19;4949;-25
2024/03/21 01:57:26;;;;;;;;;;;21.50;41.90;;;;;;3030095;19;4631;-25
2024/03/21 01:58:27;;;;;;;;;;;21.50;41.90;;;;;;3053492;19;4859;-26
2024/03/21 01:59:27;;;;;;;;;;;21.50;42.00;;;;;;3051959;19;4756;-33
2024/03/21 02:00:28;;;;;;;;;;;21.50;42.00;;;;;;3031672;19;4624;-31
2024/03/21 02:01:30;;;;;;;;;;;21.50;42.00;;;;;;3051360;19;4691;-32
2024/03/21 02:02:30;;;;;;;;;;;21.50;42.00;;;;;;3034938;19;5015;-30
2024/03/21 02:03:31;;;;;;;;;;;21.50;41.90;;;;;;3052609;19;4746;-33
2024/03/21 02:04:32;;;;;;;;;;;21.50;42.00;;;;;;3051557;19;4726;-31
2024/03/21 02:05:33;;;;;;;;;;;21.50;42.00;;;;;;3029802;19;4800;-31
2024/03/21 02:06:34;;;;;;;;;;;21.50;41.90;;;;;;3052241;19;4751;-32
2024/03/21 02:07:35;;;;;;;;;;;21.40;41.90;;;;;;3051553;19;4679;-30
2024/03/21 02:08:35;;;;;;;;;;;21.40;42.00;;;;;;3031603;19;4694;-25
2024/03/21 02:09:36;;;;;;;;;;;21.40;41.90;;;;;;3050938;19;4912;-29
2024/03/21 02:10:36;;;;;;;;;;;21.40;42.00;;;;;;3030704;19;4730;-34
2024/03/21 02:11:37;;;;;;;;;;;21.40;41.90;;;;;;3049358;19;4752;-35
2024/03/21 02:12:48;;;;;;;;;;;21.40;41.90;;;;;;3048169;19;4704;-35
2024/03/21 02:13:49;;;;;;;;;;;21.40;41.90;;;;;;3026669;19;4603;-33
2024/03/21 02:14:50;;;;;;;;;;;21.40;41.90;;;;;;3051458;19;4680;-31
2024/03/21 02:15:50;;;;;;;;;;;21.40;41.90;;;;;;3036734;19;4698;-31
2024/03/21 02:16:51;;;;;;;;;;;21.40;41.90;;;;;;3050388;19;4790;-35
2024/03/21 02:17:51;;;;;;;;;;;21.40;41.90;;;;;;3049585;19;4732;-32
2024/03/21 02:18:52;;;;;;;;;;;21.40;41.90;;;;;;3030210;19;4727;-31
2024/03/21 02:19:53;;;;;;;;;;;21.40;42.00;;;;;;3051821;19;4617;-33
2024/03/21 02:20:53;;;;;;;;;;;21.40;41.90;;;;;;3051765;19;4919;-32
2024/03/21 02:23:13;;;;;;;;;;;21.40;41.90;;;;;;3048928;19;4690;-30
2024/03/21 02:24:14;;;;;;;;;;;21.40;42.00;;;;;;3029213;19;4613;-30
2024/03/21 02:25:15;;;;;;;;;;;21.40;41.80;;;;;;3050723;19;4776;-31
2024/03/21 02:26:15;;;;;;;;;;;21.40;41.90;;;;;;3050128;19;4704;-34
2024/03/21 02:27:20;;;;;;;;;;;21.40;41.90;;;;;;3029951;19;4598;-34
2024/03/21 02:28:21;;;;;;;;;;;21.40;41.90;;;;;;3051147;19;4705;-32
2024/03/21 02:29:22;;;;;;;;;;;21.40;41.80;;;;;;3027276;19;4867;-30
2024/03/21 02:30:23;;;;;;;;;;;21.40;41.90;;;;;;3050001;19;4755;-35
2024/03/21 02:31:24;;;;;;;;;;;21.40;41.90;;;;;;3054123;19;2332;-32
2024/03/21 02:32:24;;;;;;;;;;;21.40;41.80;;;;;;3024376;19;4600;-30
2024/03/21 02:33:25;;;;;;;;;;;21.40;41.80;;;;;;3047091;19;4696;-29
2024/03/21 02:34:26;;;;;;;;;;;21.40;41.90;;;;;;3048310;19;4818;-33
2024/03/21 02:35:26;;;;;;;;;;;21.40;41.90;;;;;;3029592;19;4583;-32
2024/03/21 02:36:27;;;;;;;;;;;21.40;41.80;;;;;;3050866;19;5091;-26
2024/03/21 02:37:27;;;;;;;;;;;21.30;41.80;;;;;;3028149;19;4717;-25
2024/03/21 02:38:28;;;;;;;;;;;21.30;41.90;;;;;;3048896;19;4892;-26
2024/03/21 02:39:29;;;;;;;;;;;21.30;41.90;;;;;;3050221;19;4735;-28
2024/03/21 02:40:30;;;;;;;;;;;21.30;41.90;;;;;;3027908;19;4784;-26
2024/03/21 02:41:31;;;;;;;;;;;21.30;41.90;;;;;;3048846;19;4775;-24
2024/03/21 02:42:31;;;;;;;;;;;21.30;41.90;;;;;;3028467;19;5156;-28
2024/03/21 02:43:32;;;;;;;;;;;21.30;41.90;;;;;;3051021;19;4597;-25
2024/03/21 02:44:33;;;;;;;;;;;21.30;41.90;;;;;;3051211;19;4734;-26
2024/03/21 02:45:34;;;;;;;;;;;21.30;41.90;;;;;;3029676;19;4741;-27
2024/03/21 02:46:38;;;;;;;;;;;21.30;41.90;;;;;;3051134;19;4714;-25
2024/03/21 02:47:39;;;;;;;;;;;21.30;41.90;;;;;;3048957;19;1234;-29
2024/03/21 02:48:41;;;;;;;;;;;21.30;41.90;;;;;;3026974;19;4632;-24
2024/03/21 02:49:43;;;;;;;;;;;21.20;41.90;;;;;;3051938;19;4706;-25
2024/03/21 02:50:45;;;;;;;;;;;21.20;42.00;;;;;;3027336;19;4814;-25
2024/03/21 02:51:45;;;;;;;;;;;21.20;42.30;;;;;;3051060;19;4721;-25
2024/03/21 02:52:46;;;;;;;;;;;21.20;41.90;;;;;;3048821;19;4721;-27
2024/03/21 02:53:46;;;;;;;;;;;21.20;41.90;;;;;;3029545;19;4698;-24
2024/03/21 02:54:47;;;;;;;;;;;21.30;41.90;;;;;;3047261;19;4920;-28
2024/03/21 02:55:48;;;;;;;;;;;21.20;41.90;;;;;;3052390;19;4720;-24
2024/03/21 02:56:48;;;;;;;;;;;21.20;42.00;;;;;;3030202;19;4575;-27
2024/03/21 02:57:49;;;;;;;;;;;21.20;41.90;;;;;;3051427;19;4666;-27
2024/03/21 02:58:49;;;;;;;;;;;21.20;42.00;;;;;;3028113;19;4839;-26
2024/03/21 02:59:50;;;;;;;;;;;21.20;42.00;;;;;;3052300;19;4621;-27
2024/03/21 03:00:51;;;;;;;;;;;21.20;42.00;;;;;;3046879;19;4712;-24
2024/03/21 03:01:52;;;;;;;;;;;21.20;42.00;;;;;;3028376;19;4686;-25
2024/03/21 03:02:53;;;;;;;;;;;21.20;42.00;;;;;;3051169;19;4776;-26
2024/03/21 03:03:53;;;;;;;;;;;21.20;42.00;;;;;;3028315;19;4698;-26
2024/03/21 03:04:54;;;;;;;;;;;21.20;42.00;;;;;;3050732;19;4696;-25
2024/03/21 03:05:54;;;;;;;;;;;21.20;41.90;;;;;;3051003;19;4802;-29
2024/03/21 03:06:55;;;;;;;;;;;21.20;42.00;;;;;;3029152;19;4652;-25
2024/03/21 03:07:56;;;;;;;;;;;21.20;42.00;;;;;;3049821;19;4662;-27
2024/03/21 03:08:56;;;;;;;;;;;21.20;41.90;;;;;;3050147;19;4786;-24
2024/03/21 03:09:57;;;;;;;;;;;21.20;42.00;;;;;;3028204;19;4699;-27
2024/03/21 03:10:58;;;;;;;;;;;21.20;41.90;;;;;;3051337;19;4649;-26
2024/03/21 03:11:58;;;;;;;;;;;21.20;41.90;;;;;;3030226;19;4647;-28
2024/03/21 03:12:59;;;;;;;;;;;21.20;41.90;;;;;;3049447;19;4728;-25
2024/03/21 03:13:59;;;;;;;;;;;21.20;41.90;;;;;;3050826;19;4649;-26
2024/03/21 03:15:04;;;;;;;;;;;21.20;41.90;;;;;;3030243;19;4674;-26
2024/03/21 03:16:04;;;;;;;;;;;21.20;42.00;;;;;;3050925;19;4664;-25
2024/03/21 03:17:05;;;;;;;;;;;21.10;42.00;;;;;;3049574;19;4620;-26
2024/03/21 03:18:06;;;;;;;;;;;21.10;42.00;;;;;;3026640;19;4633;-26
2024/03/21 03:19:06;;;;;;;;;;;21.10;42.00;;;;;;3050214;19;4621;-34
2024/03/21 03:20:07;;;;;;;;;;;21.10;41.90;;;;;;3030617;19;4275;-31
2024/03/21 03:21:08;;;;;;;;;;;21.10;42.10;;;;;;3050379;19;4665;-30
2024/03/21 03:22:09;;;;;;;;;;;21.10;42.00;;;;;;3049494;19;4824;-32
2024/03/21 03:23:09;;;;;;;;;;;21.10;42.00;;;;;;3029397;19;4657;-31
2024/03/21 03:24:10;;;;;;;;;;;21.10;42.00;;;;;;3049484;19;4707;-32
2024/03/21 03:25:11;;;;;;;;;;;21.10;42.10;;;;;;3031959;19;4794;-29
2024/03/21 03:26:11;;;;;;;;;;;21.10;42.10;;;;;;3049543;19;4812;-30
2024/03/21 03:27:12;;;;;;;;;;;21.10;42.10;;;;;;3051603;19;4711;-30
2024/03/21 03:28:12;;;;;;;;;;;21.10;42.10;;;;;;3030585;19;4287;-31
2024/03/21 03:29:13;;;;;;;;;;;21.10;42.10;;;;;;3050607;19;4702;-24
2024/03/21 03:30:15;;;;;;;;;;;21.10;42.10;;;;;;3051567;19;4978;-26
2024/03/21 03:31:15;;;;;;;;;;;21.00;42.00;;;;;;3027558;19;4653;-27
2024/03/21 03:32:16;;;;;;;;;;;21.10;42.10;;;;;;3049648;19;4806;-24
2024/03/21 03:35:55;;;;;;;;;;;21.00;42.00;;;;;;3031014;19;4774;-25
2024/03/21 03:36:56;;;;;;;;;;;21.00;42.00;;;;;;3051470;19;4735;-27
2024/03/21 03:37:56;;;;;;;;;;;21.10;42.10;;;;;;3049633;19;4693;-25
2024/03/21 03:38:57;;;;;;;;;;;21.00;42.00;;;;;;3031016;19;4685;-30
2024/03/21 03:39:57;;;;;;;;;;;21.00;42.10;;;;;;3049845;19;4882;-31
2024/03/21 03:40:58;;;;;;;;;;;21.00;42.00;;;;;;3051118;19;4676;-33
2024/03/21 03:41:59;;;;;;;;;;;21.00;42.00;;;;;;3028093;19;4632;-33
2024/03/21 03:42:59;;;;;;;;;;;21.00;42.10;;;;;;3050880;19;4682;-30
2024/03/21 03:44:00;;;;;;;;;;;21.00;42.00;;;;;;3027143;19;4655;-30
2024/03/21 03:45:01;;;;;;;;;;;21.00;42.10;;;;;;3049680;19;4699;-31
2024/03/21 03:46:01;;;;;;;;;;;21.00;42.10;;;;;;3050852;19;4662;-31
2024/03/21 03:47:02;;;;;;;;;;;21.10;42.10;;;;;;3027886;19;4932;-32
2024/03/21 03:48:03;;;;;;;;;;;21.10;42.00;;;;;;3050013;19;4754;-33
2024/03/21 03:49:03;;;;;;;;;;;21.20;42.00;;;;;;3051357;19;4757;-34
2024/03/21 03:50:04;;;;;;;;;;;21.30;41.80;;;;;;3028784;19;4927;-28
2024/03/21 03:51:06;;;;;;;;;;;21.30;41.60;;;;;;3048606;19;4643;-24
2024/03/21 03:52:06;;;;;;;;;;;21.40;41.50;;;;;;3029524;19;4790;-26
2024/03/21 03:53:07;;;;;;;;;;;21.50;41.40;;;;;;3050126;19;4722;-26
2024/03/21 03:54:07;;;;;;;;;;;21.50;41.30;;;;;;3052479;19;4723;-28
2024/03/21 03:55:08;;;;;;;;;;;21.50;41.20;;;;;;3029572;19;4257;-28
2024/03/21 03:56:09;;;;;;;;;;;21.50;41.20;;;;;;3050376;19;4743;-26
2024/03/21 03:57:09;;;;;;;;;;;21.60;41.20;;;;;;3046450;19;4748;-26
2024/03/21 03:58:10;;;;;;;;;;;21.50;41.20;;;;;;3039684;19;4894;-24
2024/03/21 03:59:11;;;;;;;;;;;21.60;41.20;;;;;;3047968;19;4776;-25
2024/03/21 04:00:11;;;;;;;;;;;21.60;41.20;;;;;;3029078;19;4655;-25
2024/03/21 04:01:12;;;;;;;;;;;21.20;41.00;;;;;;3048954;19;4750;-27
2024/03/21 04:02:14;;;;;;;;;;;21.50;41.10;;;;;;3049261;19;4734;-24
2024/03/21 04:03:15;;;;;;;;;;;21.60;41.10;;;;;;3031201;19;4144;-28
2024/03/21 04:04:15;;;;;;;;;;;21.60;41.10;;;;;;3048580;19;4636;-28
2024/03/21 04:05:17;;;;;;;;;;;21.50;40.90;;;;;;3030517;19;4706;-23
2024/03/21 04:06:18;;;;;;;;;;;21.70;41.00;;;;;;3050709;19;4741;-24
2024/03/21 04:07:20;;;;;;;;;;;21.70;40.90;;;;;;3049111;19;4697;-25
2024/03/21 04:08:21;;;;;;;;;;;21.70;40.90;;;;;;3028207;19;5252;-25
2024/03/21 04:09:21;;;;;;;;;;;21.70;40.80;;;;;;3049176;19;4779;-29
2024/03/21 04:10:22;;;;;;;;;;;21.70;40.80;;;;;;3051251;19;5225;-25
2024/03/21 04:11:23;;;;;;;;;;;21.70;40.80;;;;;;3027769;19;4593;-25
2024/03/21 04:12:23;;;;;;;;;;;21.70;40.80;;;;;;3049349;19;4704;-25
2024/03/21 04:13:24;;;;;;;;;;;21.70;40.80;;;;;;3030376;19;4705;-24
2024/03/21 04:14:25;;;;;;;;;;;21.70;40.80;;;;;;3049381;19;4710;-26
2024/03/21 04:15:26;;;;;;;;;;;21.70;40.80;;;;;;3052083;19;4690;-24
2024/03/21 04:16:26;;;;;;;;;;;21.70;40.80;;;;;;3029266;19;4574;-28
2024/03/21 04:17:27;;;;;;;;;;;21.70;40.80;;;;;;3049890;19;4690;-25
2024/03/21 04:18:28;;;;;;;;;;;21.70;40.80;;;;;;3054834;19;4881;-25
2024/03/21 04:19:28;;;;;;;;;;;21.70;40.90;;;;;;3030479;19;4632;-23
2024/03/21 04:20:29;;;;;;;;;;;21.70;40.80;;;;;;3054427;19;4691;-25
2024/03/21 04:21:29;;;;;;;;;;;21.70;40.90;;;;;;3033788;19;4675;-26
2024/03/21 04:22:30;;;;;;;;;;;21.70;40.90;;;;;;3054825;19;4859;-27
2024/03/21 04:23:31;;;;;;;;;;;21.70;40.80;;;;;;3055255;19;4743;-26
2024/03/21 04:24:32;;;;;;;;;;;21.70;40.90;;;;;;3030985;19;4677;-28
2024/03/21 04:25:33;;;;;;;;;;;21.70;40.90;;;;;;3052221;19;4781;-24
2024/03/21 04:26:33;;;;;;;;;;;21.70;40.90;;;;;;3033014;19;5192;-24
2024/03/21 04:27:34;;;;;;;;;;;21.60;40.80;;;;;;3052254;19;4841;-26
2024/03/21 04:28:35;;;;;;;;;;;21.70;40.90;;;;;;3054383;19;4798;-25
2024/03/21 04:29:35;;;;;;;;;;;21.70;40.80;;;;;;3030429;19;4879;-26
2024/03/21 04:30:36;;;;;;;;;;;21.70;40.80;;;;;;3055052;19;4780;-29
2024/03/21 04:31:37;;;;;;;;;;;21.70;40.90;;;;;;3052083;19;4934;-27
2024/03/21 04:32:37;;;;;;;;;;;21.70;40.80;;;;;;3031859;19;4669;-30
2024/03/21 04:33:38;;;;;;;;;;;21.70;40.80;;;;;;3052417;19;4710;-25
2024/03/21 04:34:38;;;;;;;;;;;21.70;40.80;;;;;;3032584;19;4693;-25
2024/03/21 04:35:39;;;;;;;;;;;21.70;40.80;;;;;;3052685;19;4708;-28
2024/03/21 04:36:40;;;;;;;;;;;21.70;40.80;;;;;;3053487;19;4765;-30
2024/03/21 04:37:40;;;;;;;;;;;21.70;40.70;;;;;;3031001;19;4704;-27
2024/03/21 04:38:41;;;;;;;;;;;21.70;40.60;;;;;;3051603;19;4891;-24
2024/03/21 04:39:45;;;;;;;;;;;21.70;40.70;;;;;;3053917;19;4699;-25
2024/03/21 04:40:45;;;;;;;;;;;21.70;40.70;;;;;;3031309;19;4614;-25
2024/03/21 04:41:46;;;;;;;;;;;21.70;40.70;;;;;;3053672;19;4600;-25
2024/03/21 04:42:47;;;;;;;;;;;21.70;40.70;;;;;;3032357;19;4729;-26
2024/03/21 04:43:47;;;;;;;;;;;21.80;40.70;;;;;;3052536;19;4702;-27
2024/03/21 04:44:48;;;;;;;;;;;21.80;40.70;;;;;;3054101;19;4732;-28
2024/03/21 04:45:49;;;;;;;;;;;21.80;40.70;;;;;;3031621;19;4667;-25
2024/03/21 04:46:49;;;;;;;;;;;21.80;40.60;;;;;;3051460;19;4693;-26
2024/03/21 04:47:51;;;;;;;;;;;21.80;40.60;;;;;;3041876;19;4697;-24
2024/03/21 04:48:52;;;;;;;;;;;21.80;40.60;;;;;;3052002;19;4732;-25
2024/03/21 04:49:54;;;;;;;;;;;21.80;40.60;;;;;;3053601;19;4917;-31
2024/03/21 04:50:55;;;;;;;;;;;21.80;40.60;;;;;;3031548;19;4788;-34
2024/03/21 04:51:55;;;;;;;;;;;21.80;40.50;;;;;;3053191;19;4872;-33
2024/03/21 04:52:56;;;;;;;;;;;21.80;40.50;;;;;;3053458;19;4729;-33
2024/03/21 04:53:57;;;;;;;;;;;21.80;40.50;;;;;;3031601;19;4778;-32
2024/03/21 04:54:57;;;;;;;;;;;21.80;40.50;;;;;;3052309;19;4701;-31
2024/03/21 04:56:03;;;;;;;;;;;21.90;40.60;;;;;;3033595;19;4678;-33
2024/03/21 04:57:03;;;;;;;;;;;21.80;40.50;;;;;;3054699;19;4609;-33
2024/03/21 04:58:04;;;;;;;;;;;21.80;40.50;;;;;;3054329;19;4640;-32
2024/03/21 04:59:05;;;;;;;;;;;21.80;40.50;;;;;;3032750;19;4688;-34
2024/03/21 05:00:10;;;;;;;;;;;21.80;40.50;;;;;;3050767;19;4682;-34
2024/03/21 05:01:10;;;;;;;;;;;21.90;40.50;;;;;;3036482;19;4722;-34
2024/03/21 05:02:11;;;;;;;;;;;21.80;40.40;;;;;;3051897;19;4768;-32
2024/03/21 05:03:12;;;;;;;;;;;21.90;40.40;;;;;;3052123;19;4800;-32
2024/03/21 05:04:12;;;;;;;;;;;21.80;40.30;;;;;;3030554;19;4654;-32
2024/03/21 05:05:13;;;;;;;;;;;21.80;40.40;;;;;;3051123;19;4717;-35
2024/03/21 05:06:14;;;;;;;;;;;21.80;40.30;;;;;;3050699;19;4721;-31
2024/03/21 05:07:14;;;;;;;;;;;21.80;40.30;;;;;;3029250;19;4125;-34
2024/03/21 05:08:15;;;;;;;;;;;21.80;40.30;;;;;;3049442;19;4702;-32
2024/03/21 05:09:16;;;;;;;;;;;21.80;40.30;;;;;;3029021;19;4809;-30
2024/03/21 05:10:16;;;;;;;;;;;21.70;40.30;;;;;;3050547;19;4817;-32
2024/03/21 05:11:17;;;;;;;;;;;21.80;40.40;;;;;;3053010;19;4740;-32
2024/03/21 05:12:19;;;;;;;;;;;21.80;40.40;;;;;;3029599;19;4689;-33
2024/03/21 05:13:20;;;;;;;;;;;21.80;40.40;;;;;;3049557;19;4697;-32
2024/03/21 05:14:21;;;;;;;;;;;21.70;40.40;;;;;;3053213;19;4680;-31
2024/03/21 05:15:21;;;;;;;;;;;21.70;40.40;;;;;;3027431;19;4648;-33
2024/03/21 05:16:23;;;;;;;;;;;21.70;40.40;;;;;;3050681;19;4860;-31
2024/03/21 05:17:24;;;;;;;;;;;21.70;40.60;;;;;;3029370;19;4722;-33
2024/03/21 05:18:25;;;;;;;;;;;21.80;40.50;;;;;;3050316;19;4720;-34
2024/03/21 05:19:25;;;;;;;;;;;21.80;40.40;;;;;;3051660;19;4718;-30
2024/03/21 05:20:27;;;;;;;;;;;21.80;40.40;;;;;;3029516;19;4586;-31
2024/03/21 05:21:27;;;;;;;;;;;21.80;40.30;;;;;;3049991;19;4688;-32
2024/03/21 05:22:28;;;;;;;;;;;21.90;40.30;;;;;;3050997;19;4718;-31
2024/03/21 05:23:29;;;;;;;;;;;21.90;40.20;;;;;;3026663;19;4633;-31
2024/03/21 05:24:29;;;;;;;;;;;22.00;40.20;;;;;;3048015;19;4865;-32
2024/03/21 05:25:30;;;;;;;;;;;22.00;40.20;;;;;;3028088;19;4678;-35
2024/03/21 05:26:31;;;;;;;;;;;22.00;40.20;;;;;;3051486;19;4778;-33
2024/03/21 05:27:31;;;;;;;;;;;22.00;40.10;;;;;;3051183;19;4700;-31
2024/03/21 05:28:32;;;;;;;;;;;22.00;40.00;;;;;;3030483;19;4599;-35
2024/03/21 05:29:33;;;;;;;;;;;22.00;40.00;;;;;;3047303;19;4738;-31
2024/03/21 05:30:33;;;;;;;;;;;22.00;40.00;;;;;;3028925;19;4908;-32
2024/03/21 05:31:34;;;;;;;;;;;22.00;40.00;;;;;;3051179;19;4699;-35
2024/03/21 05:32:35;;;;;;;;;;;22.00;40.00;;;;;;3052630;19;4659;-33
2024/03/21 05:33:35;;;;;;;;;;;22.00;40.10;;;;;;3029227;19;4777;-30
2024/03/21 05:34:36;;;;;;;;;;;22.00;40.00;;;;;;3052087;19;4704;-30
2024/03/21 05:35:36;;;;;;;;;;;21.90;40.70;;;;;;3052859;19;4703;-34
2024/03/21 05:36:37;;;;;;;;;;;21.90;40.10;;;;;;3029378;19;4604;-34
2024/03/21 05:37:38;;;;;;;;;;;21.90;40.10;;;;;;3051806;19;4678;-33
2024/03/21 05:38:39;;;;;;;;;;;21.90;40.20;;;;;;3028885;19;4718;-33
2024/03/21 05:39:39;;;;;;;;;;;21.80;40.10;;;;;;3051324;19;4686;-33
2024/03/21 05:40:44;;;;;;;;;;;21.90;40.20;;;;;;3052110;19;4675;-33
2024/03/21 05:41:44;;;;;;;;;;;21.80;40.10;;;;;;3031255;19;4753;-32
2024/03/21 05:42:47;;;;;;;;;;;21.80;40.10;;;;;;3050761;19;4890;-31
2024/03/21 05:43:47;;;;;;;;;;;21.80;40.20;;;;;;3052787;19;4708;-30
2024/03/21 05:44:48;;;;;;;;;;;21.80;40.20;;;;;;3029307;19;4571;-32
2024/03/21 05:45:49;;;;;;;;;;;21.70;40.20;;;;;;3052256;19;4709;-33
2024/03/21 05:46:50;;;;;;;;;;;21.70;40.20;;;;;;3028907;19;4707;-33
2024/03/21 05:47:50;;;;;;;;;;;21.70;40.30;;;;;;3052456;19;4705;-30
2024/03/21 05:48:51;;;;;;;;;;;21.70;40.30;;;;;;3051802;19;4811;-32
2024/03/21 05:49:52;;;;;;;;;;;21.70;40.40;;;;;;3030592;19;4708;-32
2024/03/21 05:50:52;;;;;;;;;;;21.60;40.40;;;;;;3050904;19;4679;-34
2024/03/21 05:51:54;;;;;;;;;;;21.70;40.40;;;;;;3030218;19;4649;-35
2024/03/21 05:52:54;;;;;;;;;;;21.70;40.50;;;;;;3051259;19;4694;-31
2024/03/21 05:53:55;;;;;;;;;;;21.70;40.50;;;;;;3052563;19;4641;-32
2024/03/21 05:54:55;;;;;;;;;;;21.80;40.50;;;;;;3029909;19;4715;-34
2024/03/21 05:55:58;;;;;;;;;;;21.80;40.40;;;;;;3051937;19;4677;-34
2024/03/21 05:56:58;;;;;;;;;;;21.80;41.00;;;;;;3052681;19;4714;-31
2024/03/21 05:57:59;;;;;;;;;;;21.90;40.30;;;;;;3028757;19;4705;-34
2024/03/21 05:59:00;;;;;;;;;;;21.90;40.20;;;;;;3048837;19;4894;-30
2024/03/21 06:00:00;;;;;;;;;;;21.90;40.20;;;;;;3029812;19;4682;-32
2024/03/21 06:02:17;;;;;;;;;;;22.00;40.10;;;;;;2949310;19;2004447;-30
2024/03/21 06:03:18;;;;;;;;;;;22.00;40.10;;;;;;3029225;19;4755;-34
2024/03/21 06:04:18;;;;;;;;;;;22.00;40.10;;;;;;3050362;19;4710;-34